createdAt,value
2018-06-22T00:00:21.044Z,0.60
2018-06-22T00:05:24.516Z,0.83
2018-06-22T00:10:27.791Z,0.77
2018-06-22T00:15:31.068Z,0.70
2018-06-22T00:20:34.335Z,0.80
2018-06-22T00:25:37.579Z,0.70
2018-06-22T00:30:40.854Z,0.97
2018-06-22T00:35:44.106Z,0.43
2018-06-22T00:40:47.435Z,0.80
2018-06-22T00:45:50.713Z,0.70
2018-06-22T00:50:54.281Z,0.63
2018-06-22T00:55:57.548Z,0.80
2018-06-22T01:01:00.836Z,0.97
2018-06-22T01:06:04.117Z,0.90
2018-06-22T01:11:07.768Z,0.90
2018-06-22T01:16:11.040Z,0.50
2018-06-22T01:21:14.292Z,0.70
2018-06-22T01:26:17.585Z,0.70
2018-06-22T01:31:20.839Z,0.67
2018-06-22T01:36:24.108Z,1.00
2018-06-22T01:41:27.371Z,0.63
2018-06-22T01:46:30.631Z,0.83
2018-06-22T01:51:33.949Z,0.60
2018-06-22T01:56:37.212Z,0.63
2018-06-22T02:01:40.500Z,0.77
2018-06-22T02:06:43.772Z,0.50
2018-06-22T02:11:46.775Z,0.77
2018-06-22T02:16:50.074Z,0.80
2018-06-22T02:21:53.345Z,0.70
2018-06-22T02:26:56.602Z,0.77
2018-06-22T02:31:59.921Z,0.50
2018-06-22T02:37:03.209Z,0.80
2018-06-22T02:42:06.481Z,0.50
2018-06-22T02:47:09.759Z,0.50
2018-06-22T02:52:13.021Z,0.83
2018-06-22T02:57:16.362Z,0.63
2018-06-22T03:02:19.391Z,0.70
2018-06-22T03:07:22.635Z,0.80
2018-06-22T03:12:25.923Z,0.50
2018-06-22T03:17:29.643Z,0.80
2018-06-22T03:22:32.906Z,0.50
2018-06-22T03:27:36.177Z,0.50
2018-06-22T03:32:39.459Z,0.67
2018-06-22T03:37:42.719Z,0.60
2018-06-22T03:42:46.009Z,0.70
2018-06-22T03:47:49.287Z,0.57
2018-06-22T03:52:52.537Z,0.60
2018-06-22T03:57:55.858Z,0.70
2018-06-22T04:02:59.138Z,0.90
2018-06-22T04:08:02.418Z,0.80
2018-06-22T04:13:05.681Z,1.00
2018-06-22T04:18:08.661Z,0.67
2018-06-22T04:23:11.914Z,1.17
2018-06-22T04:28:15.179Z,0.70
2018-06-22T04:33:18.450Z,0.90
2018-06-22T04:38:21.762Z,0.93
2018-06-22T04:43:24.809Z,0.80
2018-06-22T04:48:28.133Z,0.90
2018-06-22T04:53:31.432Z,0.90
2018-06-22T04:58:34.766Z,0.80
2018-06-22T05:03:38.135Z,1.00
2018-06-22T05:08:41.096Z,0.83
2018-06-22T05:13:44.385Z,1.30
2018-06-22T05:18:47.770Z,0.80
2018-06-22T05:23:51.050Z,0.70
2018-06-22T05:28:54.346Z,0.73
2018-06-22T05:33:57.794Z,0.73
2018-06-22T05:39:00.842Z,0.70
2018-06-22T05:44:04.220Z,0.77
2018-06-22T05:49:07.556Z,0.60
2018-06-22T05:54:10.869Z,0.70
2018-06-22T05:59:14.231Z,0.53
2018-06-22T06:04:17.543Z,0.67
2018-06-22T06:09:20.835Z,0.90
2018-06-22T06:14:24.159Z,1.00
2018-06-22T06:19:27.439Z,1.00
2018-06-22T06:24:30.724Z,0.83
2018-06-22T06:29:34.042Z,0.70
2018-06-22T06:34:37.330Z,1.00
2018-06-22T06:39:40.687Z,1.00
2018-06-22T06:44:43.993Z,0.80
2018-06-22T06:49:47.302Z,0.97
2018-06-22T06:54:50.643Z,0.90
2018-06-22T06:59:53.928Z,1.30
2018-06-22T07:04:57.242Z,1.00
2018-06-22T07:10:00.544Z,0.73
2018-06-22T07:15:03.991Z,0.83
2018-06-22T07:20:07.565Z,0.80
2018-06-22T07:25:10.876Z,0.80
2018-06-22T07:30:14.198Z,1.03
2018-06-22T07:35:17.512Z,1.10
2018-06-22T07:40:21.114Z,2.10
2018-06-22T07:45:24.864Z,1.33
2018-06-22T07:50:28.167Z,1.00
2018-06-22T07:55:31.482Z,1.40
2018-06-22T08:00:34.774Z,1.33
2018-06-22T08:05:38.085Z,1.10
2018-06-22T08:10:41.421Z,1.40
2018-06-22T08:15:44.730Z,1.30
2018-06-22T08:20:48.041Z,1.43
2018-06-22T08:25:51.474Z,1.00
2018-06-22T08:30:54.770Z,1.00
2018-06-22T08:35:58.075Z,1.07
2018-06-22T08:41:01.385Z,0.80
2018-06-22T08:46:04.706Z,1.17
2018-06-22T08:51:08.135Z,0.70
2018-06-22T08:56:11.434Z,0.90
2018-06-22T09:01:15.049Z,1.20
2018-06-22T09:06:18.078Z,0.90
2018-06-22T09:11:21.618Z,0.90
2018-06-22T09:16:24.898Z,1.10
2018-06-22T09:21:28.209Z,0.97
2018-06-22T09:26:31.481Z,0.90
2018-06-22T09:31:34.812Z,1.07
2018-06-22T09:36:38.180Z,1.20
2018-06-22T09:41:41.463Z,0.80
2018-06-22T09:46:44.748Z,0.90
2018-06-22T09:51:48.049Z,1.00
2018-06-22T09:56:51.654Z,1.40
2018-06-22T10:01:55.482Z,0.80
2018-06-22T10:06:58.795Z,0.90
2018-06-22T10:12:02.090Z,0.70
2018-06-22T10:17:05.419Z,0.80
2018-06-22T10:22:08.747Z,0.67
2018-06-22T10:27:12.094Z,1.00
2018-06-22T10:32:15.758Z,0.57
2018-06-22T10:37:19.083Z,0.50
2018-06-22T10:42:22.405Z,0.83
2018-06-22T10:47:25.757Z,0.70
2018-06-22T10:52:28.810Z,0.93
2018-06-22T10:57:32.127Z,0.50
2018-06-22T11:02:35.444Z,0.50
2018-06-22T11:07:38.809Z,1.20
2018-06-22T11:12:42.150Z,1.23
2018-06-22T11:17:45.438Z,0.90
2018-06-22T11:22:48.775Z,0.80
2018-06-22T11:27:52.078Z,1.70
2018-06-22T11:32:55.361Z,0.60
2018-06-22T11:37:58.405Z,1.23
2018-06-22T11:43:01.843Z,1.03
2018-06-22T11:48:05.011Z,0.80
2018-06-22T11:53:08.298Z,0.83
2018-06-22T11:58:11.341Z,0.87
2018-06-22T12:03:14.680Z,0.63
2018-06-22T12:08:17.993Z,0.60
2018-06-22T12:13:21.311Z,0.77
2018-06-22T12:18:24.617Z,0.83
2018-06-22T12:23:27.998Z,0.97
2018-06-22T12:28:31.305Z,0.80
2018-06-22T12:33:34.566Z,0.60
2018-06-22T12:38:37.873Z,0.80
2018-06-22T12:43:41.167Z,1.10
2018-06-22T12:48:44.578Z,0.70
2018-06-22T12:53:47.867Z,0.60
2018-06-22T12:58:51.198Z,0.63
2018-06-22T13:03:54.620Z,0.90
2018-06-22T13:08:57.982Z,0.60
2018-06-22T13:14:01.301Z,0.80
2018-06-22T13:19:04.836Z,0.97
2018-06-22T13:24:08.142Z,0.60
2018-06-22T13:29:11.428Z,0.50
2018-06-22T13:34:15.651Z,0.87
2018-06-22T13:39:19.322Z,0.80
2018-06-22T13:44:22.615Z,0.90
2018-06-22T13:49:26.461Z,0.73
2018-06-22T13:54:30.347Z,1.10
2018-06-22T13:59:33.650Z,0.63
2018-06-22T14:04:42.398Z,0.80
2018-06-22T14:09:45.729Z,0.87
2018-06-22T14:14:49.045Z,0.63
2018-06-22T14:19:52.352Z,0.50
2018-06-22T14:24:55.665Z,0.70
2018-06-22T14:29:58.995Z,0.63
2018-06-22T14:35:02.358Z,0.80
2018-06-22T14:40:05.757Z,0.50
2018-06-22T14:45:08.802Z,0.40
2018-06-22T14:50:17.531Z,0.30
2018-06-22T14:55:26.152Z,0.60
2018-06-22T15:00:34.926Z,2.93
2018-06-22T15:05:43.562Z,0.70
2018-06-22T15:10:46.911Z,1.70
2018-06-22T15:15:50.219Z,2.10
2018-06-22T15:20:53.537Z,1.40
2018-06-22T15:25:56.846Z,1.00
2018-06-22T15:31:00.191Z,1.13
2018-06-22T15:36:08.823Z,0.67
2018-06-22T15:41:17.580Z,1.03
2018-06-22T15:46:26.243Z,0.60
2018-06-22T15:51:34.903Z,1.00
2018-06-22T15:56:38.194Z,0.77
2018-06-22T16:01:41.448Z,0.70
2018-06-22T16:06:44.450Z,0.43
2018-06-22T16:11:47.478Z,0.60
2018-06-22T16:16:56.156Z,0.60
2018-06-22T16:22:05.075Z,0.60
2018-06-22T16:27:10.215Z,0.80
2018-06-22T16:32:13.495Z,0.97
2018-06-22T16:37:23.235Z,1.10
2018-06-22T16:42:26.514Z,1.20
2018-06-22T16:47:29.808Z,1.10
2018-06-22T16:52:33.098Z,1.20
2018-06-22T16:57:36.215Z,0.80
2018-06-22T17:02:39.476Z,1.03
2018-06-22T17:07:48.182Z,1.10
2018-06-22T17:13:04.414Z,0.90
2018-06-22T17:18:13.030Z,0.80
2018-06-22T17:23:17.305Z,0.90
2018-06-22T17:28:20.634Z,0.80
2018-06-22T17:33:23.911Z,1.23
2018-06-22T17:38:27.229Z,0.40
2018-06-22T17:43:34.123Z,0.90
2018-06-22T17:48:37.436Z,0.90
2018-06-22T17:53:40.717Z,0.90
2018-06-22T17:58:48.225Z,1.00
2018-06-22T18:03:56.847Z,1.30
2018-06-22T18:09:00.137Z,1.03
2018-06-22T18:14:03.780Z,0.90
2018-06-22T18:24:16.715Z,1.10
2018-06-22T18:29:19.998Z,0.80
2018-06-22T18:34:23.267Z,0.50
2018-06-22T18:39:26.276Z,0.50
2018-06-22T18:44:29.345Z,0.43
2018-06-22T18:49:33.174Z,0.43
2018-06-22T18:54:42.064Z,0.73
2018-06-22T18:59:50.098Z,0.70
2018-06-22T19:04:53.677Z,0.77
2018-06-22T19:09:57.010Z,1.20
2018-06-22T19:15:00.370Z,1.00
2018-06-22T19:20:03.679Z,1.20
2018-06-22T19:25:06.712Z,1.33
2018-06-22T19:30:10.426Z,1.50
2018-06-22T19:35:14.562Z,1.50
2018-06-22T19:40:17.596Z,1.30
2018-06-22T19:45:26.600Z,1.40
2018-06-22T19:50:35.211Z,1.40
2018-06-22T19:55:38.531Z,1.10
2018-06-22T20:00:41.877Z,1.37
2018-06-22T20:05:44.856Z,1.67
2018-06-22T20:10:47.910Z,1.60
2018-06-22T20:15:51.222Z,1.20
2018-06-22T20:20:54.493Z,1.83
2018-06-22T20:25:57.527Z,1.93
2018-06-22T20:31:00.850Z,1.70
2018-06-22T20:36:09.597Z,1.37
2018-06-22T20:41:18.200Z,1.27
2018-06-22T20:46:26.967Z,1.40
2018-06-22T20:51:35.607Z,1.17
2018-06-22T20:56:38.903Z,1.20
2018-06-22T21:01:42.190Z,1.60
2018-06-22T21:06:45.467Z,1.67
2018-06-22T21:11:48.485Z,2.50
2018-06-22T21:16:51.772Z,1.77
2018-06-22T21:22:00.611Z,1.83
2018-06-22T21:27:09.590Z,1.70
2018-06-22T21:32:18.297Z,2.07
2018-06-22T21:37:27.018Z,2.03
2018-06-22T21:42:30.165Z,1.57
2018-06-22T21:47:33.943Z,2.80
2018-06-22T21:52:37.383Z,2.37
2018-06-22T21:57:40.679Z,2.60
2018-06-22T22:02:43.940Z,2.40
2018-06-22T22:07:46.954Z,2.10
2018-06-22T22:12:49.969Z,2.87
2018-06-22T22:17:53.276Z,2.73
2018-06-22T22:22:56.554Z,2.40
2018-06-22T22:27:59.846Z,2.90
2018-06-22T22:33:03.146Z,2.37
2018-06-22T22:38:06.465Z,2.60
2018-06-22T22:43:09.450Z,3.10
2018-06-22T22:48:12.758Z,3.23
2018-06-22T22:53:16.014Z,2.70
2018-06-22T22:58:19.286Z,2.60
2018-06-22T23:03:22.575Z,2.20
2018-06-22T23:08:27.028Z,2.47
2018-06-22T23:13:30.299Z,2.57
2018-06-22T23:18:33.374Z,3.50
2018-06-22T23:23:38.446Z,2.50
2018-06-22T23:28:41.742Z,2.43
2018-06-22T23:33:45.067Z,2.63
2018-06-22T23:38:48.354Z,2.70
2018-06-22T23:43:51.613Z,2.70
2018-06-22T23:48:54.934Z,2.90
2018-06-22T23:53:58.249Z,2.70
2018-06-22T23:59:01.541Z,3.10
